Aviation Digital Data Service (ADDS)

Output produced by METARs form (2310 UTC 15 August 2018)
found at http://www.aviationweather.gov/adds/metars/
 
TAF SMJP 151600Z 1518/1618 07008KT 9999 SCT030 TX34/1518Z TN23/1610Z 
     FM152300 08004KT CAVOK 
     PROB30 
     TEMPO 1609/1611 2000 BR FEW003 
     FM161200 12008KT 9999 SCT020